Competition: Vikingrace 2019

Rink:
Heerenveen (NED)
Date:
01. - 02.03.2019
Records:
Information:
  • 288 athletes from 16 nations
  • 140 women and 148 men
  • 10 distances (1000m, 1000m (1. Race), 1000m (2. Race), 1500m, 3000m, 500m, 500m (1. Race), 500m (2. Race), 500m (3. Race), 500m (4. Race))
  • 1152 races (37x mit DNF/DNS/DQ)
DistanceTime / PointsNameDate
1000 meter 1:24.29 Tara Donoghue (B2) 02.03.2019
Mini combination 154.356 Peter Riches (B2) 01. - 02.03.2019
Last Update: 29.11.2022
DistanceTime / PointsNameDate
1000 meter 1:24.29 Tara Donoghue (B2) 02.03.2019
1500 meter 2:11.69 Tara Donoghue (B2) 01.03.2019
Mini combination 154.356 Peter Riches (B2) 01. - 02.03.2019
Mini combination 166.221 Gijs Luijten (B1) 01. - 02.03.2019
Sprint combination 184.190 Natascha Lindenskov (C1) 01. - 02.03.2019
3000 meter 4:07.45 Peter Riches (B2) 01.03.2019
Last Update: 29.11.2022
DistanceTime / PointsNameDate
500 meter 42.97 Wiktoria Dąbrowska (D1) 02.03.2019
500 meter 47.50 Alexandra Snowdon (D1) 02.03.2019
500 meter 48.24 Alexandra Snowdon (D1) 01.03.2019
Last Update: 29.11.2022
DistanceTime / PointsNameDate
500 meter 38.50 Emil Pedersen Matre (C2) 01.03.2019
500 meter 41.64 Varvara Bandaryana (C2) 02.03.2019
500 meter 42.15 Varvara Bandaryana (C2) 01.03.2019
500 meter 46.13 Natascha Lindenskov (C1) 02.03.2019
Sprint combination 155.880 Szymon Wojtakowski (C1) 01. - 02.03.2019
Sprint combination 184.190 Natascha Lindenskov (C1) 01. - 02.03.2019
Sprint combination 198.975 Lucas Rondel (C1) 01. - 02.03.2019
Last Update: 29.11.2022
DistanceTime / PointsNameDate
1000 meter 1:24.29 Tara Donoghue (B2) 02.03.2019
1500 meter 2:11.69 Tara Donoghue (B2) 01.03.2019
Mini combination 154.356 Peter Riches (B2) 01. - 02.03.2019
Mini combination 165.916 Victoria Stirnemann (B2) 01. - 02.03.2019
Mini combination 166.221 Gijs Luijten (B1) 01. - 02.03.2019
3000 meter 4:07.45 Peter Riches (B2) 01.03.2019
Last Update: 29.11.2022
DistanceTime / PointsNameDate
Sprint Combination 161.655 Sille Hut (C1) 01. - 02.03.2019
Sprint Combination 166.125 Sem Bodewes (C1) 01. - 02.03.2019
Sprint Combination 168.860 Jesko Wrobel (C1) 01. - 02.03.2019
Sprint Combination 170.725 Konstantin Hell (C1) 01. - 02.03.2019
Sprint Combination 170.925 Leo Løland Eikeset (C1) 01. - 02.03.2019
Sprint Combination 175.070 Nora Kästner (C1) 01. - 02.03.2019
Sprint Combination 175.560 Maira Jasch (C1) 01. - 02.03.2019
Sprint Combination 176.010 Melanie Segatta (C1) 01. - 02.03.2019
Sprint Combination 177.685 Vanessa Andreatta (C1) 01. - 02.03.2019
Sprint Combination 177.700 Liwia Kubin (C1) 01. - 02.03.2019
Sprint Combination 179.290 Urho Hiltunen (C1) 01. - 02.03.2019
Sprint Combination 179.975 Ruben van Beekhuizen (C1) 01. - 02.03.2019
Sprint Combination 180.195 Marije Steneker (C1) 01. - 02.03.2019
Sprint Combination 180.230 Leia van der Tempel (C1) 01. - 02.03.2019
Sprint Combination 182.675 Nini Mauseth (C1) 01. - 02.03.2019
Sprint Combination 184.190 Natascha Lindenskov (C1) 01. - 02.03.2019
Sprint Combination 184.825 Sylvia de Vries (C1) 01. - 02.03.2019
Sprint Combination 185.815 Jilles Tjoelker (C1) 01. - 02.03.2019
Sprint Combination 187.505 Villiina Suomalainen (C1) 01. - 02.03.2019
Sprint Combination 188.780 Marieke Van Den Heuvel (C1) 01. - 02.03.2019
Sprint Combination 188.915 Peike Jouri Gemser (C1) 01. - 02.03.2019
Sprint Combination 194.620 Iris Kuiken (C1) 01. - 02.03.2019
Sprint Combination 195.875 Janette Pirhonen (C1) 01. - 02.03.2019
Sprint Combination 198.700 Hugo Klockar (C1) 01. - 02.03.2019
Sprint Combination 198.975 Lucas Rondel (C1) 01. - 02.03.2019
Mini Combination 150.053 Stefan Westenbroek (B2) 01. - 02.03.2019
Mini Combination 150.741 Jarle Gerrits (B2) 01. - 02.03.2019
Mini Combination 151.892 Peder Kongshaug (B2) 01. - 02.03.2019
Mini Combination 152.223 Tobias Fløiten (B2) 01. - 02.03.2019
Mini Combination 154.356 Peter Riches (B2) 01. - 02.03.2019
Mini Combination 154.827 Kasper Tveter (B2) 01. - 02.03.2019
Mini Combination 155.560 Ignaz Gschwentner (B2) 01. - 02.03.2019
Mini Combination 156.173 Tom Rudolph (B2) 01. - 02.03.2019
Mini Combination 159.581 Dyon Talsma (B2) 01. - 02.03.2019
Mini Combination 160.507 Mathijs van Zwieten (B2) 01. - 02.03.2019
Mini Combination 161.184 Riccardo Pontalti (B2) 01. - 02.03.2019
Mini Combination 161.824 Jesse de Lange (B2) 01. - 02.03.2019
Mini Combination 161.917 Jeroen de Kroon (B2) 01. - 02.03.2019
Mini Combination 161.996 Juuso Lehtonen (B2) 01. - 02.03.2019
Mini Combination 162.367 Szymon Zegarowicz (B2) 01. - 02.03.2019
Mini Combination 164.017 Merel Conijn (B2) 01. - 02.03.2019
Mini Combination 165.216 Stefan Bij de Weg (B2) 01. - 02.03.2019
Mini Combination 165.281 Jakub Zakrzewski (B2) 01. - 02.03.2019
Mini Combination 165.714 Isabel Grevelt (B2) 01. - 02.03.2019
Mini Combination 165.775 Simon Bigler (B2) 01. - 02.03.2019
Mini Combination 165.916 Victoria Stirnemann (B2) 01. - 02.03.2019
Mini Combination 170.086 Jakub Kępa (B1) 01. - 02.03.2019
Mini Combination 172.684 Marta.02 Dobrowolska (B2) 01. - 02.03.2019
Mini Combination 176.585 Vera Lou Gemser (B2) 01. - 02.03.2019
Mini Combination 179.547 Alicja Faderewska (B2) 01. - 02.03.2019
Mini Combination 181.319 Marieke Gerbrandy (B2) 01. - 02.03.2019
Mini Combination 181.479 Jekaterina Krupenkova (B2) 01. - 02.03.2019
Mini Combination 183.681 Saveli Bogretsov (B1) 01. - 02.03.2019
Mini Combination 185.903 Nils.03 Olofsson (B1) 01. - 02.03.2019
Mini Combination 190.106 Sini Siro (B2) 01. - 02.03.2019
Mini Combination 190.231 Tina Svensson (B2) 01. - 02.03.2019
Mini Combination 192.381 Inka Koivisto (B2) 01. - 02.03.2019
Mini Combination 212.884 Elin Eriksson (B2) 01. - 02.03.2019
Mini Combination 214.578 Tova Margareta Åström (B2) 01. - 02.03.2019
500 meter 39.45 Igor Masalski (B1) 01.03.2019
500 meter 42.65 Melanie Segatta (C1) 02.03.2019
500 meter 43.46 Bianca van der Meer (B1) Nils.03 Olofsson (B1) 02.03.2019
500 meter 44.32 Ruben van Beekhuizen (C1) 01.03.2019
500 meter 45.58 Anastasija.04 Vlasova (C1) 01.03.2019
500 meter 46.23 Nadia dal Sie (D2) 02.03.2019
500 meter 46.67 Valtteri Toivainen (D1) 01.03.2019
500 meter 46.96 Aaro Korpijärvi (D2) 02.03.2019
500 meter 47.39 Rick Van Den Akker (C1) 01.03.2019
500 meter 48.30 Joline Batez-Johansson (C1) 01.03.2019
500 meter 49.98 Elius Niemi (E2) 01.03.2019
500 meter 51.18 Mairon Moisto (D1) 01.03.2019
500 meter 51.77 Fanny Hende (B1) 02.03.2019
500 meter 52.28 Henna Vatanen (D2) 02.03.2019
1000 meter 1:14.48 Tobias Fløiten (B2) 02.03.2019
1000 meter 1:16.30 Riccardo Pontalti (B2) 02.03.2019
1000 meter 1:17.59 Igor Masalski (B1) 02.03.2019
1000 meter 1:17.73 Szymon Zegarowicz (B2) 02.03.2019
1000 meter 1:18.94 Mathijs van Zwieten (B2) 02.03.2019
1000 meter 1:22.15 Jakub Kępa (B1) 02.03.2019
1000 meter 1:24.29 Tara Donoghue (B2) 02.03.2019
1000 meter 1:26.11 Alicja Faderewska (B2) 02.03.2019
1000 meter 1:26.67 Bianca van der Meer (B1) 02.03.2019
1000 meter 1:27.57 Sofie Ulset (C2) 01.03.2019
1000 meter 1:29.16 Nils.03 Olofsson (B1) 02.03.2019
1000 meter 1:30.37 Saveli Bogretsov (B1) 02.03.2019
1000 meter 1:31.06 Ruben van Beekhuizen (C1) 01.03.2019
1000 meter 1:32.15 Karl-Martin Laasberg (C2) 01.03.2019
1000 meter 1:33.72 Rick Van Den Akker (C1) 02.03.2019
1000 meter 1:34.65 Aaro Korpijärvi (D2) 02.03.2019
1000 meter 1:36.39 Nadia dal Sie (D2) 02.03.2019
1000 meter 1:42.24 Joline Batez-Johansson (C1) 02.03.2019
1000 meter 1:49.91 Fanny Hende (B1) 01.03.2019
1500 meter 1:52.30 Tobias Fløiten (B2) 02.03.2019
1500 meter 1:58.95 Igor Masalski (B1) 02.03.2019
1500 meter 1:59.94 Denis Putsjkov (C2) 02.03.2019
1500 meter 2:00.62 Jeroen de Kroon (B2) 02.03.2019
1500 meter 2:00.89 Szymon Zegarowicz (B2) 02.03.2019
1500 meter 2:07.62 Jakub Kępa (B1) 02.03.2019
1500 meter 2:08.81 Marta.02 Dobrowolska (B2) 01.03.2019
1500 meter 2:11.92 Bianca van der Meer (B1) 02.03.2019
1500 meter 2:12.42 Amanda Bø Lysø (B1) 02.03.2019
1500 meter 2:19.41 Nils.03 Olofsson (B1) 02.03.2019
1500 meter 2:19.82 Saveli Bogretsov (B1) 02.03.2019
1500 meter 2:21.97 Aurora Resmini (C2) 02.03.2019
1500 meter 2:23.18 Karl-Martin Laasberg (C2) 02.03.2019
1500 meter 2:24.19 Winnie Britta Hjelm (B1) 02.03.2019
1500 meter 2:38.96 Elin Eriksson (B2) 01.03.2019
1500 meter 2:54.30 Fanny Hende (B1) 02.03.2019
3000 meter 3:52.14 Tobias Fløiten (B2) 01.03.2019
3000 meter 4:03.41 Manuel Zähringer (B1) 02.03.2019
3000 meter 4:23.81 Riccardo Pontalti (B2) 01.03.2019
3000 meter 4:23.95 Thomas Nadalini (B2) 01.03.2019
3000 meter 4:25.50 Jakub Zakrzewski (B2) 01.03.2019
3000 meter 4:28.31 Isabel Grevelt (B2) 01.03.2019
3000 meter 4:30.79 Jakub Kępa (B1) 01.03.2019
3000 meter 4:43.15 Jekaterina Krupenkova (B2) 02.03.2019
3000 meter 4:47.22 Saveli Bogretsov (B1) 01.03.2019
3000 meter 4:50.14 Marieke Gerbrandy (B2) 01.03.2019
3000 meter 5:08.36 Nils.03 Olofsson (B1) 01.03.2019
3000 meter 5:32.54 Tova Margareta Åström (B2) 02.03.2019
3000 meter 5:41.81 Elin Eriksson (B2) 02.03.2019
Last Update: 29.11.2022
DistanceTime / PointsNameDate
500 meter 36.83 Jarle Gerrits (B2) 02.03.2019
500 meter 37.59 Kasper Tveter (B2) 01.03.2019
500 meter 37.62 Nicky Rosanelli (B1) 01.03.2019
500 meter 37.95 Gert Wierda (B1) 01.03.2019
500 meter 37.98 Stan van Vliet (B1) 01.03.2019
500 meter 38.41 Tim Prins (C2) 01.03.2019
500 meter 38.48 Juuso Lehtonen (B2) 02.03.2019
500 meter 38.58 Rinze-Bart de Glee (C2) 01.03.2019
500 meter 38.59 Szymon Wojtakowski (C1) 02.03.2019
500 meter 38.76 Sondre Buer Åsebø (B1) 01.03.2019
500 meter 38.94 Riccardo Pontalti (B2) 01.03.2019
500 meter 39.00 Eetu Käsnänen (B1) 02.03.2019
500 meter 39.19 Sijmen Egberts (C2) 02.03.2019
500 meter 39.29 Maxymilian Rzepka (C2) 01.03.2019
500 meter 39.45 Igor Masalski (B1) 01.03.2019
500 meter 39.74 Hidde Westra (C2) 02.03.2019
500 meter 39.90 Alessandro Loreggia (C1) 01.03.2019
500 meter 40.17 Hylke de Boer (C2) 02.03.2019
500 meter 40.20 Romedius Thurner (B1) 01.03.2019
500 meter 40.36 Sille Hut (C1) 02.03.2019
500 meter 40.39 Leon Germershaus (C2) 01.03.2019
500 meter 40.54 Didrik Eng Strand (D2) 02.03.2019
500 meter 40.58 Isac Forslund (B1) 01.03.2019
500 meter 40.63 Sebastian Forsmark (C2) 01.03.2019
500 meter 40.66 Martin Solberg Andreassen (C2) 02.03.2019
500 meter 40.71 Myrthe de Boer (B2) 02.03.2019
500 meter 40.80 Merel Conijn (B2) 02.03.2019
500 meter 40.81 Mathijs van Zwieten (B2) 01.03.2019
500 meter 40.87 Sophie Warmuth (B1) 01.03.2019
500 meter 40.94 Miłosz Zawisza (C1) 02.03.2019
500 meter 41.08 Alberto Salino (C2) 02.03.2019
500 meter 41.09 Emil Klockar (B2) 02.03.2019
500 meter 41.13 Chloé Hoogendoorn (C2) 01.03.2019
500 meter 41.23 Piotr Borkowski (D2) 02.03.2019
500 meter 41.30 Daria Kopacz (B1) 01.03.2019
500 meter 41.31 Mats Bendijk (D2) 02.03.2019
500 meter 41.37 Mateusz Śliwka (D2) 02.03.2019
500 meter 41.38 Sem Bodewes (C1) 02.03.2019
500 meter 41.42 Thijmen Paardekooper (C1) 01.03.2019
500 meter 41.45 Ludvig Nylén (C2) 02.03.2019
500 meter 41.48 Marta.02 Dobrowolska (B2) 01.03.2019
500 meter 41.52 Evelien Vijn (B1) 02.03.2019
500 meter 41.64 Varvara Bandaryana (C2) 02.03.2019
500 meter 41.73 Lars Meijer (C2) 01.03.2019
500 meter 41.78 Sanne Westra (B1) 01.03.2019
500 meter 41.88 Josephine Schlörb (C2) 02.03.2019
500 meter 41.93 Alvar Muhonen (C2) 01.03.2019
500 meter 41.96 Zuzanna Sączek (B1) Angel Daleman (D1) 01.03.2019
500 meter 41.97 Mathijs Molenaar (D2) 01.03.2019
500 meter 41.98 Tobias Schlörb (D2) 02.03.2019
500 meter 42.02 Laura Kivioja (B1) 02.03.2019
500 meter 42.08 Lennart Grabe (D2) 02.03.2019
500 meter 42.19 Magdalena Smędzik (C2) 02.03.2019
500 meter 42.21 Leo Løland Eikeset (C1) 02.03.2019
500 meter 42.29 Magdalena Mühle (B1) 02.03.2019
500 meter 42.35 Finn Sonnekalb (D1) 02.03.2019
500 meter 42.41 Wiktoria Dąbrowska (D1) 02.03.2019
500 meter 42.44 Alicja Jasztal (C2) 01.03.2019
500 meter 42.61 Serena Pergher (C2) 01.03.2019
500 meter 42.61 Daniele Zampedri (D1) 02.03.2019
500 meter 42.65 Melanie Segatta (C1) 02.03.2019
500 meter 42.66 Evi Gelling (B1) Aleksandra Czapnik (C1) 02.03.2019
500 meter 42.70 Fredrik Pedersen (D2) 02.03.2019
500 meter 42.84 Sofie Ulset (C2) 01.03.2019
500 meter 42.86 Sampsa Santtila (C1) 01.03.2019
500 meter 43.06 Valentin Brunner (C2) 02.03.2019
500 meter 43.13 Arne Lernes (D2) 02.03.2019
500 meter 43.25 Nora Kästner (C1) 01.03.2019
500 meter 43.30 Alicja Faderewska (B2) 01.03.2019
500 meter 43.33 Isa Leroy (D2) 02.03.2019
500 meter 43.36 Pelle Bolsius (D1) 02.03.2019
500 meter 43.42 Matteo Finco (D2) 01.03.2019
500 meter 43.46 Bianca van der Meer (B1) Nils.03 Olofsson (B1) 02.03.2019
500 meter 43.56 Sietske van der Meer (C2) 01.03.2019
500 meter 43.66 Maira Jasch (C1) 01.03.2019
500 meter 43.72 Rens Vergeer (D2) 02.03.2019
500 meter 43.78 Miika Johan Klevstuen (D1) 02.03.2019
500 meter 43.79 Vladimir Iljusjin (C1) 02.03.2019
500 meter 43.80 Amanda Bø Lysø (B1) Sofie Adeberg (D2) 02.03.2019
500 meter 43.85 Vanessa Andreatta (C1) 02.03.2019
500 meter 43.94 Katia Filippi (B1) 02.03.2019
500 meter 43.95 Aleksandra Królikowska (D2) 02.03.2019
500 meter 43.95 Aleksandra Królikowska (D2) 02.03.2019
500 meter 44.00 Mayke Vriesinga (D2) 01.03.2019
500 meter 44.02 Saveli Bogretsov (B1) 01.03.2019
500 meter 44.03 Sarah Marie Sanderud (B1) Luka Rintala (D2) 01.03.2019
500 meter 44.08 Jekaterina Krupenkova (B2) 02.03.2019
500 meter 44.10 Kimberley de Lang (D2) 01.03.2019
500 meter 44.17 Urho Hiltunen (C1) 02.03.2019
500 meter 44.32 Ruben van Beekhuizen (C1) 01.03.2019
500 meter 44.53 Colin Breed (D1) 02.03.2019
500 meter 44.66 Rafał Skrzydlewski (D1) Lina Poddubnaia (D2) 02.03.2019
500 meter 44.68 Simon Jeppsson (C2) 01.03.2019
500 meter 44.74 Winnie Britta Hjelm (B1) 01.03.2019
500 meter 44.89 Szymon Hostyński (D1) 01.03.2019
500 meter 44.98 Jilles Tjoelker (C1) 01.03.2019
500 meter 45.08 Philippe Garmeister (D1) Caitlin De Groot (D2) 01.03.2019
500 meter 45.11 Maybritt Vigl (C1) 02.03.2019
500 meter 45.15 Iris Kuiken (C1) 02.03.2019
500 meter 45.34 Inka Koivisto (B2) 01.03.2019
500 meter 45.34 Vanessa Gey (D1) 02.03.2019
500 meter 45.36 Julija Maljukevitsj (D1) 02.03.2019
500 meter 45.37 Kristian Heikkinen (C1) 02.03.2019
500 meter 45.48 Zofia Braun (D1) 01.03.2019
500 meter 45.54 Isabelle Duft (D1) 01.03.2019
500 meter 45.57 Aurora Resmini (C2) 02.03.2019
500 meter 45.58 Anastasija.04 Vlasova (C1) 01.03.2019
500 meter 45.67 Tina Svensson (B2) 01.03.2019
500 meter 45.80 Aurora Grinden Løvås (C1) 01.03.2019
500 meter 46.01 Tijn Borst (D2) 02.03.2019
500 meter 46.08 Aline Holbø Dyrset (D2) 02.03.2019
500 meter 46.21 Carmen Thurner (D2) 02.03.2019
500 meter 46.21 Sophie Exterkate (D1) 02.03.2019
500 meter 46.23 Nadia dal Sie (D2) 02.03.2019
500 meter 46.24 Mattia Leonardelli (D1) 01.03.2019
500 meter 46.44 Eirik Andersen (D1) 01.03.2019
500 meter 46.53 Alva Winroth (B1) 01.03.2019
500 meter 46.67 Valtteri Toivainen (D1) 01.03.2019
500 meter 46.77 Vilde Semb (D2) 02.03.2019
500 meter 46.83 Karl-Martin Laasberg (C2) 01.03.2019
500 meter 46.91 Veera Lehtonen (C2) 02.03.2019
500 meter 46.96 Aaro Korpijärvi (D2) 02.03.2019
500 meter 47.13 Marieke Van Den Heuvel (C1) 02.03.2019
500 meter 47.39 Rick Van Den Akker (C1) 01.03.2019
500 meter 47.40 Sammi van Vliet (D1) 02.03.2019
500 meter 47.50 Alexandra Snowdon (D1) 01.03.2019
500 meter 47.60 Sveva Mazzoleni Ferracini (C2) 01.03.2019
500 meter 47.88 Anton Eriksson (D2) 02.03.2019
500 meter 48.08 Zoeyra Di Caterino (D1) 02.03.2019
500 meter 48.30 Joline Batez-Johansson (C1) 01.03.2019
500 meter 48.33 Disa Arnell (B1) 01.03.2019
500 meter 48.51 Marriet van der Tol (D1) 02.03.2019
500 meter 48.72 Thea Johansson (C1) 01.03.2019
500 meter 48.89 Tindra Jansson-Westman (C1) 02.03.2019
500 meter 48.91 Hugo Klockar (C1) 01.03.2019
500 meter 49.03 Mats.07 Westra (D1) 02.03.2019
500 meter 49.11 Simone de Carli (D2) 02.03.2019
500 meter 49.18 Felicia Nilsson (D2) 01.03.2019
500 meter 49.31 Lucas Rondel (C1) 01.03.2019
500 meter 49.88 Robin Metz (D1) 02.03.2019
500 meter 49.96 Jarno Haitjema (D1) 01.03.2019
500 meter 49.98 Elius Niemi (E2) 01.03.2019
500 meter 50.12 Sofie Sjödin (D2) 02.03.2019
500 meter 50.26 Elin Eriksson (B2) 01.03.2019
500 meter 50.29 Jeen Hoogland (D1) 02.03.2019
500 meter 50.71 Laura de Vries (D1) 02.03.2019
500 meter 50.94 Steffen Soha (D2) 02.03.2019
500 meter 51.08 Lieke Hijlkema (D1) 01.03.2019
500 meter 51.18 Mairon Moisto (D1) 01.03.2019
500 meter 51.20 Nienke Valkenburg (D1) 01.03.2019
500 meter 51.22 Kerli Prohorenko (D2) 02.03.2019
500 meter 51.46 Meri-Vuokko Hannula (D1) 02.03.2019
500 meter 51.61 Zada Dzudzevic (D1) 02.03.2019
500 meter 51.71 Ingrid Sæther (D1) 02.03.2019
500 meter 51.71 Ingrid Sæther (D1) 02.03.2019
500 meter 51.77 Fanny Hende (B1) 02.03.2019
500 meter 52.21 Roelof Timmerman (D1) 01.03.2019
500 meter 52.28 Henna Vatanen (D2) 02.03.2019
500 meter 52.43 Lisa Nilzen (D1) 01.03.2019
500 meter 52.47 Tova Margareta Åström (B2) 01.03.2019
500 meter 54.22 Lea Rondel (D1) 01.03.2019
500 meter 54.76 Tyra Pousette Hjelm (D1) 01.03.2019
500 meter 57.64 Philip Jõgi (C1) 01.03.2019
500 meter 58.69 Kristjan Prohorenko (D2) 02.03.2019
1000 meter 1:13.18 Peder Kongshaug (B2) 01.03.2019
1000 meter 1:13.28 Jarle Gerrits (B2) 02.03.2019
1000 meter 1:13.80 Gert Wierda (B1) 01.03.2019
1000 meter 1:14.15 Kasper Tveter (B2) 01.03.2019
1000 meter 1:14.29 Peter Riches (B2) 02.03.2019
1000 meter 1:14.48 Tobias Fløiten (B2) 02.03.2019
1000 meter 1:15.70 Nicky Rosanelli (B1) 02.03.2019
1000 meter 1:16.30 Riccardo Pontalti (B2) 02.03.2019
1000 meter 1:16.47 Tim Prins (C2) 02.03.2019
1000 meter 1:16.70 Manuel Zähringer (B1) 01.03.2019
1000 meter 1:16.71 Maxymilian Rzepka (C2) 02.03.2019
1000 meter 1:16.73 Juuso Lehtonen (B2) 01.03.2019
1000 meter 1:16.77 Thomas Nadalini (B2) 02.03.2019
1000 meter 1:17.59 Igor Masalski (B1) 02.03.2019
1000 meter 1:17.73 Szymon Zegarowicz (B2) 02.03.2019
1000 meter 1:17.78 Szymon Wojtakowski (C1) 01.03.2019
1000 meter 1:17.85 Sijmen Egberts (C2) 01.03.2019
1000 meter 1:17.96 Stijn Beekelaar (C2) 02.03.2019
1000 meter 1:18.56 Simon Bigler (B2) 02.03.2019
1000 meter 1:18.74 Hylke de Boer (C2) 02.03.2019
1000 meter 1:18.81 Merel Conijn (B2) 01.03.2019
1000 meter 1:18.84 Isabel Grevelt (B2) 02.03.2019
1000 meter 1:18.94 Mathijs van Zwieten (B2) 02.03.2019
1000 meter 1:19.01 Jakub Zakrzewski (B2) 02.03.2019
1000 meter 1:19.56 Hidde Westra (C2) 01.03.2019
1000 meter 1:19.62 Myrthe de Boer (B2) 01.03.2019
1000 meter 1:20.54 Miłosz Zawisza (C1) 02.03.2019
1000 meter 1:20.89 Leon Germershaus (C2) 01.03.2019
1000 meter 1:20.93 Laura Peveri (B2) 02.03.2019
1000 meter 1:21.33 Jasper Krommenhoek (C2) 01.03.2019
1000 meter 1:21.39 Thijmen Paardekooper (C1) 01.03.2019
1000 meter 1:21.50 Alessandro Loreggia (C1) 02.03.2019
1000 meter 1:21.80 Pien Smit (C2) 01.03.2019
1000 meter 1:22.03 Emil Klockar (B2) 02.03.2019
1000 meter 1:22.15 Jakub Kępa (B1) 02.03.2019
1000 meter 1:22.17 Isac Forslund (B1) 02.03.2019
1000 meter 1:22.63 Arwen Szygenda (B2) 02.03.2019
1000 meter 1:22.65 Evelien Vijn (B1) 02.03.2019
1000 meter 1:22.88 Sem Bodewes (C1) 02.03.2019
1000 meter 1:23.17 Jildou Schaaf (C2) 02.03.2019
1000 meter 1:23.42 Lars Meijer (C2) 01.03.2019
1000 meter 1:23.54 Chloé Hoogendoorn (C2) 01.03.2019
1000 meter 1:23.76 Mateusz Śliwka (D2) 02.03.2019
1000 meter 1:23.81 Jesko Wrobel (C1) 02.03.2019
1000 meter 1:23.82 Mats Bendijk (D2) 02.03.2019
1000 meter 1:23.94 Daria Kopacz (B1) 01.03.2019
1000 meter 1:24.17 Marta.02 Dobrowolska (B2) 02.03.2019
1000 meter 1:24.29 Tara Donoghue (B2) 02.03.2019
1000 meter 1:24.46 Meike Veen (C1) 02.03.2019
1000 meter 1:24.54 Varvara Bandaryana (C2) 02.03.2019
1000 meter 1:24.73 Alberto Salino (C2) 01.03.2019
1000 meter 1:24.81 Mathijs Molenaar (D2) 01.03.2019
1000 meter 1:24.82 Ludvig Nylén (C2) 01.03.2019
1000 meter 1:25.26 Giacomo Zampedri (C2) 01.03.2019
1000 meter 1:25.48 Alvar Muhonen (C2) 01.03.2019
1000 meter 1:25.53 Leo Løland Eikeset (C1) 02.03.2019
1000 meter 1:25.84 Piotr Borkowski (D2) 02.03.2019
1000 meter 1:25.95 Sampsa Santtila (C1) 01.03.2019
1000 meter 1:26.04 Lennart Grabe (D2) 01.03.2019
1000 meter 1:26.11 Alicja Faderewska (B2) 02.03.2019
1000 meter 1:26.30 Sietske van der Meer (C2) 01.03.2019
1000 meter 1:26.33 Alicja Jasztal (C2) 01.03.2019
1000 meter 1:26.40 Valentin Brunner (C2) 01.03.2019
1000 meter 1:26.44 Fredrik Pedersen (D2) 01.03.2019
1000 meter 1:26.67 Bianca van der Meer (B1) 02.03.2019
1000 meter 1:26.91 Zuzanna Sączek (B1) 01.03.2019
1000 meter 1:26.92 Amanda Bø Lysø (B1) 01.03.2019
1000 meter 1:27.03 Katia Filippi (B1) 02.03.2019
1000 meter 1:27.07 Arne Lernes (D2) 01.03.2019
1000 meter 1:27.42 Maira Jasch (C1) 01.03.2019
1000 meter 1:27.57 Sofie Ulset (C2) 01.03.2019
1000 meter 1:27.62 Nora Kästner (C1) 02.03.2019
1000 meter 1:27.65 Isa Leroy (D2) 01.03.2019
1000 meter 1:27.81 Matteo Finco (D2) 02.03.2019
1000 meter 1:27.83 Aleksandra Czapnik (C1) 02.03.2019
1000 meter 1:27.92 Jurjen Hiemstra (C1) 02.03.2019
1000 meter 1:28.10 Liwia Kubin (C1) 01.03.2019
1000 meter 1:28.11 Rens Vergeer (D2) 02.03.2019
1000 meter 1:28.53 Jekaterina Krupenkova (B2) 02.03.2019
1000 meter 1:29.16 Nils.03 Olofsson (B1) 02.03.2019
1000 meter 1:29.30 Vanessa Andreatta (C1) 02.03.2019
1000 meter 1:29.39 Leia van der Tempel (C1) 02.03.2019
1000 meter 1:29.40 Simon Jeppsson (C2) 02.03.2019
1000 meter 1:29.49 Iga Smejda (D2) 02.03.2019
1000 meter 1:29.61 Aleksandra Królikowska (D2) 02.03.2019
1000 meter 1:29.65 Sofie Adeberg (D2) 02.03.2019
1000 meter 1:29.79 Lina Poddubnaia (D2) 02.03.2019
1000 meter 1:29.93 Urho Hiltunen (C1) 01.03.2019
1000 meter 1:30.03 Luka Rintala (D2) 02.03.2019
1000 meter 1:30.29 Melanie Segatta (C1) 02.03.2019
1000 meter 1:30.37 Saveli Bogretsov (B1) 02.03.2019
1000 meter 1:30.71 Serena Pergher (C2) 01.03.2019
1000 meter 1:31.06 Ruben van Beekhuizen (C1) 01.03.2019
1000 meter 1:31.29 Caitlin De Groot (D2) 02.03.2019
1000 meter 1:32.05 Kimberley de Lang (D2) 02.03.2019
1000 meter 1:32.15 Karl-Martin Laasberg (C2) 01.03.2019
1000 meter 1:32.44 Aurora Resmini (C2) 01.03.2019
1000 meter 1:32.45 Sylvia de Vries (C1) 01.03.2019
1000 meter 1:32.74 Tina Svensson (B2) 01.03.2019
1000 meter 1:32.78 Winnie Britta Hjelm (B1) 01.03.2019
1000 meter 1:33.07 Iris Kuiken (C1) 02.03.2019
1000 meter 1:33.60 Carmen Thurner (D2) 02.03.2019
1000 meter 1:33.70 Aline Holbø Dyrset (D2) 01.03.2019
1000 meter 1:33.72 Rick Van Den Akker (C1) 02.03.2019
1000 meter 1:33.97 Tijn Borst (D2) 02.03.2019
1000 meter 1:34.24 Marieke Van Den Heuvel (C1) 02.03.2019
1000 meter 1:34.46 Lise Janssen (D2) 02.03.2019
1000 meter 1:34.65 Aaro Korpijärvi (D2) 02.03.2019
1000 meter 1:34.66 Maybritt Vigl (C1) 01.03.2019
1000 meter 1:35.14 Kristian Heikkinen (C1) 02.03.2019
1000 meter 1:35.79 Jurgen Zomermaand (D2) 02.03.2019
1000 meter 1:36.39 Nadia dal Sie (D2) 02.03.2019
1000 meter 1:37.04 Disa Arnell (B1) 02.03.2019
1000 meter 1:37.23 Sveva Mazzoleni Ferracini (C2) 01.03.2019
1000 meter 1:38.26 Anton Eriksson (D2) 02.03.2019
1000 meter 1:38.78 Veera Lehtonen (C2) 02.03.2019
1000 meter 1:40.18 Lucas Rondel (C1) 01.03.2019
1000 meter 1:40.41 Janette Pirhonen (C1) 01.03.2019
1000 meter 1:40.44 Hugo Klockar (C1) 02.03.2019
1000 meter 1:41.57 Thea Johansson (C1) 01.03.2019
1000 meter 1:42.24 Joline Batez-Johansson (C1) 02.03.2019
1000 meter 1:42.67 Tindra Jansson-Westman (C1) 01.03.2019
1000 meter 1:45.18 Simone de Carli (D2) 01.03.2019
1000 meter 1:45.34 Elin Eriksson (B2) 02.03.2019
1000 meter 1:45.95 Tova Margareta Åström (B2) 02.03.2019
1000 meter 1:46.65 Kerli Prohorenko (D2) 02.03.2019
1000 meter 1:49.91 Fanny Hende (B1) 01.03.2019
1000 meter 1:50.39 Steffen Soha (D2) 02.03.2019
1500 meter 1:52.30 Tobias Fløiten (B2) 02.03.2019
1500 meter 1:52.55 Jarle Gerrits (B2) 02.03.2019
1500 meter 1:52.88 Chris Fredriks (B1) 01.03.2019
1500 meter 1:54.75 Peter Riches (B2) 02.03.2019
1500 meter 1:56.80 Manuel Zähringer (B1) 01.03.2019
1500 meter 1:57.23 Tim Prins (C2) 02.03.2019
1500 meter 1:58.94 Mathijs van Zwieten (B2) 02.03.2019
1500 meter 1:58.95 Igor Masalski (B1) 02.03.2019
1500 meter 1:59.32 Maxymilian Rzepka (C2) 02.03.2019
1500 meter 1:59.37 Hidde Westra (C2) 02.03.2019
1000 meter 1:59.66 Philip Jõgi (C1) 01.03.2019
1500 meter 1:59.94 Denis Putsjkov (C2) 02.03.2019
1500 meter 1:59.95 Nicky Rosanelli (B1) 01.03.2019
1500 meter 2:00.06 Thomas Nadalini (B2) 02.03.2019
1500 meter 2:00.38 Riccardo Pontalti (B2) 02.03.2019
1500 meter 2:00.62 Jeroen de Kroon (B2) 02.03.2019
1500 meter 2:00.89 Szymon Zegarowicz (B2) 02.03.2019
1500 meter 2:01.37 Anton Brankovskij (B1) 02.03.2019
1500 meter 2:01.71 Simon Bigler (B2) 01.03.2019
1500 meter 2:02.35 Juuso Lehtonen (B2) 01.03.2019
1500 meter 2:02.42 Merel Conijn (B2) 01.03.2019
1500 meter 2:03.91 Eetu Käsnänen (B1) 01.03.2019
1500 meter 2:04.11 Myrthe de Boer (B2) 01.03.2019
1500 meter 2:04.41 Laura Peveri (B2) 01.03.2019
1500 meter 2:04.56 Romedius Thurner (B1) 01.03.2019
1500 meter 2:04.58 Gijs Luijten (B1) 01.03.2019
1500 meter 2:04.90 Sanne Westra (B1) 02.03.2019
1500 meter 2:05.13 Leon Germershaus (C2) 02.03.2019
1500 meter 2:05.47 Evelien Vijn (B1) 01.03.2019
1500 meter 2:06.03 Jasper Krommenhoek (C2) 01.03.2019
1500 meter 2:07.05 Giacomo Zampedri (C2) 01.03.2019
1500 meter 2:07.15 Chloé Hoogendoorn (C2) 02.03.2019
1500 meter 2:07.29 Emil Klockar (B2) 02.03.2019
1500 meter 2:07.54 Anna Ostlender (B2) 02.03.2019
1500 meter 2:07.62 Jakub Kępa (B1) 02.03.2019
1500 meter 2:08.27 Ludvig Nylén (C2) 02.03.2019
1500 meter 2:08.38 Isac Forslund (B1) 02.03.2019
1500 meter 2:08.81 Marta.02 Dobrowolska (B2) 01.03.2019
1500 meter 2:08.87 Kaspar Norberg (C2) 02.03.2019
1000 meter 2:09.29 Amelia Pettersson (D2) 02.03.2019
1500 meter 2:09.59 Evi Gelling (B1) 02.03.2019
1500 meter 2:10.09 Alvar Muhonen (C2) 02.03.2019
1500 meter 2:11.69 Tara Donoghue (B2) 02.03.2019
1500 meter 2:11.92 Bianca van der Meer (B1) 02.03.2019
1500 meter 2:12.18 Magdalena Mühle (B1) 02.03.2019
1500 meter 2:12.42 Amanda Bø Lysø (B1) 02.03.2019
1500 meter 2:12.45 Alberto Salino (C2) 02.03.2019
1500 meter 2:12.60 Sietske van der Meer (C2) 01.03.2019
1500 meter 2:12.65 Varvara Bandaryana (C2) 02.03.2019
1500 meter 2:13.49 Alicja Faderewska (B2) 01.03.2019
1500 meter 2:14.44 Kim van der Werff (B1) 02.03.2019
1500 meter 2:15.02 Anna Marit Sybrandi (C2) 02.03.2019
1500 meter 2:15.51 Alicja Jasztal (C2) 02.03.2019
1500 meter 2:16.70 Katia Filippi (B1) 02.03.2019
1500 meter 2:17.30 Sebastian Forsmark (C2) 02.03.2019
1500 meter 2:17.44 Zuzanna Sączek (B1) 01.03.2019
1500 meter 2:17.55 Valentin Brunner (C2) 02.03.2019
1500 meter 2:18.41 Simon Jeppsson (C2) 01.03.2019
1500 meter 2:19.06 Sofie Ulset (C2) 02.03.2019
1500 meter 2:19.41 Nils.03 Olofsson (B1) 02.03.2019
1500 meter 2:19.82 Saveli Bogretsov (B1) 02.03.2019
1500 meter 2:21.97 Aurora Resmini (C2) 02.03.2019
1500 meter 2:23.18 Karl-Martin Laasberg (C2) 02.03.2019
1500 meter 2:23.46 Serena Pergher (C2) 01.03.2019
1500 meter 2:24.19 Winnie Britta Hjelm (B1) 02.03.2019
1500 meter 2:24.20 Tina Svensson (B2) 01.03.2019
1500 meter 2:25.25 Maybritt Vigl (C1) 01.03.2019
1500 meter 2:29.01 Disa Arnell (B1) 01.03.2019
1500 meter 2:29.21 Alva Winroth (B1) 01.03.2019
Mini combination 150.053 Stefan Westenbroek (B2) 01. - 02.03.2019
Mini combination 150.741 Jarle Gerrits (B2) 01. - 02.03.2019
Mini combination 151.892 Peder Kongshaug (B2) 01. - 02.03.2019
Mini combination 152.223 Tobias Fløiten (B2) 01. - 02.03.2019
1500 meter 2:32.92 Kristian Heikkinen (C1) 02.03.2019
1500 meter 2:33.07 Sveva Mazzoleni Ferracini (C2) 02.03.2019
Mini combination 153.322 Gert Wierda (B1) 01. - 02.03.2019
Mini combination 153.887 Chris Fredriks (B1) 01. - 02.03.2019
Mini combination 154.356 Peter Riches (B2) 01. - 02.03.2019
Mini combination 154.592 Stan van Vliet (B1) 01. - 02.03.2019
Mini combination 154.827 Kasper Tveter (B2) 01. - 02.03.2019
Mini combination 155.560 Ignaz Gschwentner (B2) 01. - 02.03.2019
Sprint combination 155.880 Szymon Wojtakowski (C1) 01. - 02.03.2019
Mini combination 156.173 Tom Rudolph (B2) 01. - 02.03.2019
Mini combination 156.951 Manuel Zähringer (B1) 01. - 02.03.2019
1500 meter 2:37.16 Veera Lehtonen (C2) 02.03.2019
Mini combination 158.954 Simon Aannø (B1) 01. - 02.03.2019
1500 meter 2:38.96 Elin Eriksson (B2) 01.03.2019
Mini combination 159.581 Dyon Talsma (B2) 01. - 02.03.2019
Mini combination 160.507 Mathijs van Zwieten (B2) 01. - 02.03.2019
1500 meter 2:41.13 Tova Margareta Åström (B2) 01.03.2019
Mini combination 161.184 Riccardo Pontalti (B2) 01. - 02.03.2019
Mini combination 161.453 Maks Fedorov (B1) 01. - 02.03.2019
Sprint combination 161.655 Sille Hut (C1) 01. - 02.03.2019
Mini combination 161.791 Nicky Rosanelli (B1) 01. - 02.03.2019
Mini combination 161.824 Jesse de Lange (B2) 01. - 02.03.2019
Mini combination 161.917 Jeroen de Kroon (B2) 01. - 02.03.2019
Mini combination 161.931 Anton Brankovskij (B1) 01. - 02.03.2019
Mini combination 161.996 Juuso Lehtonen (B2) 01. - 02.03.2019
Mini combination 162.367 Szymon Zegarowicz (B2) 01. - 02.03.2019
Sprint combination 162.455 Alessandro Loreggia (C1) 01. - 02.03.2019
Mini combination 162.551 Klaas Meekma (B1) 01. - 02.03.2019
Sprint combination 163.055 Miłosz Zawisza (C1) 01. - 02.03.2019
Mini combination 163.896 Michiel de Jong (B1) 01. - 02.03.2019
Mini combination 164.017 Merel Conijn (B2) 01. - 02.03.2019
Mini combination 164.443 Niek Stolhof (B2) 01. - 02.03.2019
Mini combination 164.466 Eetu Käsnänen (B1) 01. - 02.03.2019
Sprint combination 164.595 Thijmen Paardekooper (C1) 01. - 02.03.2019
Mini combination 165.216 Stefan Bij de Weg (B2) 01. - 02.03.2019
Mini combination 165.281 Jakub Zakrzewski (B2) 01. - 02.03.2019
Sprint combination 165.580 Sigurd Henriksen (C1) 01. - 02.03.2019
Mini combination 165.714 Isabel Grevelt (B2) 01. - 02.03.2019
Mini combination 165.775 Simon Bigler (B2) 01. - 02.03.2019
Mini combination 165.916 Victoria Stirnemann (B2) 01. - 02.03.2019
Mini combination 166.040 Myrthe de Boer (B2) 01. - 02.03.2019
Sprint combination 166.125 Sem Bodewes (C1) 01. - 02.03.2019
Mini combination 166.221 Gijs Luijten (B1) 01. - 02.03.2019
Mini combination 167.216 Romedius Thurner (B1) 01. - 02.03.2019
Sprint combination 168.860 Jesko Wrobel (C1) 01. - 02.03.2019
Mini combination 169.594 Anna Ostlender (B2) 01. - 02.03.2019
Mini combination 169.633 Emil Klockar (B2) 01. - 02.03.2019
Mini combination 170.086 Jakub Kępa (B1) 01. - 02.03.2019
Sprint combination 170.725 Konstantin Hell (C1) 01. - 02.03.2019
Sprint combination 170.925 Leo Løland Eikeset (C1) 01. - 02.03.2019
Sprint combination 171.230 Patricia Koot (C1) 01. - 02.03.2019
Sprint combination 171.730 Meike Veen (C1) 01. - 02.03.2019
Mini combination 172.144 Isac Forslund (B1) 01. - 02.03.2019
Sprint combination 172.655 Sampsa Santtila (C1) 01. - 02.03.2019
Mini combination 172.684 Marta.02 Dobrowolska (B2) 01. - 02.03.2019
Sprint combination 174.040 Aleksandra Czapnik (C1) 01. - 02.03.2019
1500 meter 2:54.30 Fanny Hende (B1) 02.03.2019
Sprint combination 174.860 Manuel de Carli (C1) 01. - 02.03.2019
Sprint combination 175.065 Johan Talsma (C1) 01. - 02.03.2019
Sprint combination 175.070 Nora Kästner (C1) 01. - 02.03.2019
Sprint combination 175.560 Maira Jasch (C1) 01. - 02.03.2019
Sprint combination 176.010 Melanie Segatta (C1) 01. - 02.03.2019
Mini combination 176.585 Vera Lou Gemser (B2) 01. - 02.03.2019
Sprint combination 176.690 Jurjen Hiemstra (C1) 01. - 02.03.2019
Sprint combination 177.685 Vanessa Andreatta (C1) 01. - 02.03.2019
Sprint combination 177.700 Liwia Kubin (C1) 01. - 02.03.2019
Sprint combination 179.290 Urho Hiltunen (C1) 01. - 02.03.2019
Mini combination 179.547 Alicja Faderewska (B2) 01. - 02.03.2019
Sprint combination 179.975 Ruben van Beekhuizen (C1) 01. - 02.03.2019
Sprint combination 180.195 Marije Steneker (C1) 01. - 02.03.2019
Sprint combination 180.230 Leia van der Tempel (C1) 01. - 02.03.2019
Mini combination 181.319 Marieke Gerbrandy (B2) 01. - 02.03.2019
Mini combination 181.479 Jekaterina Krupenkova (B2) 01. - 02.03.2019
Mini combination 182.114 Katia Filippi (B1) 01. - 02.03.2019
Sprint combination 182.675 Nini Mauseth (C1) 01. - 02.03.2019
Sprint combination 182.970 Marieke de Vries (C1) 01. - 02.03.2019
Sprint combination 183.095 Vladimir Iljusjin (C1) 01. - 02.03.2019
Mini combination 183.681 Saveli Bogretsov (B1) 01. - 02.03.2019
Sprint combination 184.190 Natascha Lindenskov (C1) 01. - 02.03.2019
Sprint combination 184.825 Sylvia de Vries (C1) 01. - 02.03.2019
Sprint combination 185.080 Aurora Grinden Løvås (C1) 01. - 02.03.2019
Mini combination 185.813 Mayke Koster (B2) 01. - 02.03.2019
Sprint combination 185.815 Jilles Tjoelker (C1) 01. - 02.03.2019
Mini combination 185.903 Nils.03 Olofsson (B1) 01. - 02.03.2019
Sprint combination 187.505 Villiina Suomalainen (C1) 01. - 02.03.2019
Sprint combination 187.725 Ina Nakken (C1) 01. - 02.03.2019
Sprint combination 188.780 Marieke Van Den Heuvel (C1) 01. - 02.03.2019
Sprint combination 188.915 Peike Jouri Gemser (C1) 01. - 02.03.2019
Mini combination 190.106 Sini Siro (B2) 01. - 02.03.2019
Mini combination 190.231 Tina Svensson (B2) 01. - 02.03.2019
Mini combination 192.381 Inka Koivisto (B2) 01. - 02.03.2019
Sprint combination 194.620 Iris Kuiken (C1) 01. - 02.03.2019
Sprint combination 195.875 Janette Pirhonen (C1) 01. - 02.03.2019
Sprint combination 198.700 Hugo Klockar (C1) 01. - 02.03.2019
Sprint combination 198.975 Lucas Rondel (C1) 01. - 02.03.2019
Sprint combination 201.360 Tindra Jansson-Westman (C1) 01. - 02.03.2019
Sprint combination 202.955 Thea Johansson (C1) 01. - 02.03.2019
Mini combination 212.884 Elin Eriksson (B2) 01. - 02.03.2019
Mini combination 214.578 Tova Margareta Åström (B2) 01. - 02.03.2019
3000 meter 3:52.14 Tobias Fløiten (B2) 01.03.2019
Sprint combination 237.095 Philip Jõgi (C1) 01. - 02.03.2019
3000 meter 3:58.53 Jarle Gerrits (B2) 02.03.2019
3000 meter 4:00.10 Gert Wierda (B1) 01.03.2019
3000 meter 4:03.41 Manuel Zähringer (B1) 02.03.2019
3000 meter 4:03.49 Mathijs van Zwieten (B2) 01.03.2019
3000 meter 4:07.00 Kasper Tveter (B2) 01.03.2019
3000 meter 4:07.45 Peter Riches (B2) 02.03.2019
3000 meter 4:09.47 Dyon Talsma (B2) 01.03.2019
3000 meter 4:11.02 Simon Aannø (B1) 02.03.2019
3000 meter 4:13.34 Sondre Buer Åsebø (B1) 01.03.2019
3000 meter 4:13.35 Ignaz Gschwentner (B2) 01.03.2019
3000 meter 4:14.36 Tom Rudolph (B2) 02.03.2019
3000 meter 4:16.22 Laura Peveri (B2) 01.03.2019
3000 meter 4:17.61 Anton Brankovskij (B1) 02.03.2019
3000 meter 4:18.04 Merel Conijn (B2) 02.03.2019
3000 meter 4:19.66 Szymon Zegarowicz (B2) 01.03.2019
3000 meter 4:21.09 Gijs Luijten (B1) 01.03.2019
3000 meter 4:21.31 Jeroen de Kroon (B2) 01.03.2019
3000 meter 4:23.81 Riccardo Pontalti (B2) 01.03.2019
3000 meter 4:23.95 Thomas Nadalini (B2) 01.03.2019
3000 meter 4:24.50 Victoria Stirnemann (B2) 02.03.2019
3000 meter 4:24.90 Myrthe de Boer (B2) 02.03.2019
3000 meter 4:25.50 Jakub Zakrzewski (B2) 01.03.2019
3000 meter 4:26.21 Juuso Lehtonen (B2) 02.03.2019
3000 meter 4:27.58 Michiel de Jong (B1) 01.03.2019
3000 meter 4:28.31 Isabel Grevelt (B2) 01.03.2019
3000 meter 4:29.43 Emile Schnabel (B1) 01.03.2019
3000 meter 4:30.31 Romedius Thurner (B1) 02.03.2019
3000 meter 4:30.59 Emil Klockar (B2) 01.03.2019
3000 meter 4:30.79 Jakub Kępa (B1) 01.03.2019
3000 meter 4:31.54 Anna Ostlender (B2) 02.03.2019
3000 meter 4:38.03 Nicky Rosanelli (B1) 02.03.2019
3000 meter 4:43.15 Jekaterina Krupenkova (B2) 02.03.2019
3000 meter 4:46.12 Isac Forslund (B1) 01.03.2019
3000 meter 4:47.22 Saveli Bogretsov (B1) 01.03.2019
3000 meter 4:49.82 Mayke Koster (B2) 01.03.2019
3000 meter 4:50.14 Marieke Gerbrandy (B2) 01.03.2019
3000 meter 4:54.56 Katia Filippi (B1) 02.03.2019
3000 meter 5:00.75 Tina Svensson (B2) 02.03.2019
3000 meter 5:08.36 Nils.03 Olofsson (B1) 01.03.2019
3000 meter 5:32.54 Tova Margareta Åström (B2) 02.03.2019
3000 meter 5:41.81 Elin Eriksson (B2) 02.03.2019
Last Update: 29.11.2022